createdAt,value
2018-11-02T00:00:22.003Z,11.48
2018-11-02T00:01:02.320Z,11.41
2018-11-02T00:01:42.797Z,11.44
2018-11-02T00:02:23.215Z,11.45
2018-11-02T00:03:03.562Z,11.39
2018-11-02T00:03:44.091Z,11.44
2018-11-02T00:04:24.543Z,11.41
2018-11-02T00:05:04.991Z,11.36
2018-11-02T00:05:45.377Z,11.36
2018-11-02T00:06:25.911Z,11.35
2018-11-02T00:07:06.196Z,11.36
2018-11-02T00:07:46.606Z,11.36
2018-11-02T00:08:27.038Z,11.38
2018-11-02T00:09:07.437Z,11.39
2018-11-02T00:09:47.977Z,11.36
2018-11-02T00:10:28.223Z,11.3
2018-11-02T00:11:08.631Z,11.39
2018-11-02T00:11:49.045Z,11.36
2018-11-02T00:12:29.606Z,11.35
2018-11-02T00:13:09.839Z,11.38
2018-11-02T00:13:50.519Z,11.38
2018-11-02T00:14:30.945Z,11.38
2018-11-02T00:15:11.372Z,11.31
2018-11-02T00:15:51.829Z,11.36
2018-11-02T00:16:32.607Z,11.38
2018-11-02T00:17:13.017Z,11.39
2018-11-02T00:17:53.567Z,11.36
2018-11-02T00:18:33.922Z,11.36
2018-11-02T00:19:14.650Z,11.36
2018-11-02T00:19:55.128Z,11.36
2018-11-02T00:20:36.137Z,11.35
2018-11-02T00:21:16.534Z,11.26
2018-11-02T00:21:56.920Z,11.28
2018-11-02T00:22:37.575Z,11.2
2018-11-02T00:23:18.046Z,11.16
2018-11-02T00:23:58.505Z,11.19
2018-11-02T00:24:39.089Z,11.17
2018-11-02T00:25:19.566Z,11.26
2018-11-02T00:26:00.149Z,11.2
2018-11-02T00:26:40.584Z,11.08
2018-11-02T00:27:21.059Z,11.13
2018-11-02T00:28:01.582Z,11.09
2018-11-02T00:28:42.043Z,11.08
2018-11-02T00:29:23.088Z,11.06
2018-11-02T00:30:04.273Z,11.05
2018-11-02T00:30:45.510Z,11.08
2018-11-02T00:31:25.909Z,10.98
2018-11-02T00:32:06.555Z,11.06
2018-11-02T00:32:47.991Z,11.05
2018-11-02T00:33:28.262Z,11.05
2018-11-02T00:34:08.808Z,11.09
2018-11-02T00:34:49.872Z,11.08
2018-11-02T00:35:30.304Z,11.09
2018-11-02T00:36:10.717Z,11.09
2018-11-02T00:36:51.099Z,11.06
2018-11-02T00:37:31.653Z,11.09
2018-11-02T00:38:12.163Z,11.11
2018-11-02T00:38:52.668Z,11.11
2018-11-02T00:39:33.440Z,11.16
2018-11-02T00:40:13.485Z,11.13
2018-11-02T00:40:54.015Z,11.12
2018-11-02T00:41:35.097Z,11.08
2018-11-02T00:42:15.539Z,11.11
2018-11-02T00:42:56.008Z,11.11
2018-11-02T00:43:37.075Z,11.09
2018-11-02T00:44:17.723Z,11.17
2018-11-02T00:44:58.146Z,11.09
2018-11-02T00:45:38.613Z,11.02
2018-11-02T00:46:19.208Z,11.09
2018-11-02T00:47:00.942Z,11.13
2018-11-02T00:47:42.168Z,11.09
2018-11-02T00:48:22.720Z,11.16
2018-11-02T00:49:03.376Z,11.11
2018-11-02T00:49:43.582Z,11.03
2018-11-02T00:50:24.201Z,11.06
2018-11-02T00:51:04.690Z,11.06
2018-11-02T00:51:49.052Z,10.99
2018-11-02T00:52:29.713Z,11.05
2018-11-02T00:53:10.011Z,11.03
2018-11-02T00:53:50.445Z,11.09
2018-11-02T00:54:31.211Z,11.09
2018-11-02T00:55:11.731Z,11.09
2018-11-02T00:55:52.062Z,11.12
2018-11-02T00:56:32.670Z,11.12
2018-11-02T00:57:12.901Z,11.21
2018-11-02T00:57:53.387Z,11.13
2018-11-02T00:58:33.810Z,11.19
2018-11-02T00:59:14.216Z,11.2
2018-11-02T00:59:54.831Z,11.26
2018-11-02T01:00:35.266Z,11.26
2018-11-02T01:01:15.635Z,11.33
2018-11-02T01:01:56.162Z,11.26
2018-11-02T01:02:36.702Z,11.27
2018-11-02T01:03:17.203Z,11.3
2018-11-02T01:03:57.554Z,11.33
2018-11-02T01:04:39.395Z,11.36
2018-11-02T01:05:19.677Z,11.35
2018-11-02T01:06:00.595Z,11.44
2018-11-02T01:06:41.645Z,11.42
2018-11-02T01:07:22.144Z,11.56
2018-11-02T01:08:02.559Z,11.56
2018-11-02T01:08:43.187Z,11.7
2018-11-02T01:09:23.967Z,11.66
2018-11-02T01:10:04.402Z,11.69
2018-11-02T01:10:44.851Z,11.77
2018-11-02T01:11:25.260Z,11.81
2018-11-02T01:12:05.920Z,11.84
2018-11-02T01:12:46.363Z,11.98
2018-11-02T01:13:26.801Z,11.98
2018-11-02T01:14:07.147Z,12.04
2018-11-02T01:14:47.590Z,12.04
2018-11-02T01:15:27.980Z,12.11
2018-11-02T01:16:08.378Z,12.11
2018-11-02T01:16:48.923Z,12.12
2018-11-02T01:17:29.240Z,12.25
2018-11-02T01:18:09.656Z,12.34
2018-11-02T01:18:50.071Z,12.26
2018-11-02T01:19:30.473Z,12.36
2018-11-02T01:20:10.825Z,12.3
2018-11-02T01:20:51.311Z,12.25
2018-11-02T01:21:31.735Z,12.15
2018-11-02T01:22:12.312Z,12.11
2018-11-02T01:22:52.632Z,12.13
2018-11-02T01:23:32.922Z,12.18
2018-11-02T01:24:13.403Z,12.16
2018-11-02T01:24:54.056Z,12.12
2018-11-02T01:25:34.346Z,12.3
2018-11-02T01:26:14.819Z,12.18
2018-11-02T01:26:55.253Z,12.16
2018-11-02T01:27:35.637Z,12.16
2018-11-02T01:28:15.964Z,12.31
2018-11-02T01:28:56.405Z,12.29
2018-11-02T01:29:36.892Z,12.3
2018-11-02T01:30:17.200Z,12.25
2018-11-02T01:31:00.532Z,12.21
2018-11-02T01:31:41.055Z,12.29
2018-11-02T01:32:21.448Z,12.19
2018-11-02T01:33:01.876Z,12.19
2018-11-02T01:33:42.382Z,12.21
2018-11-02T01:34:22.810Z,12.29
2018-11-02T01:35:03.215Z,12.16
2018-11-02T01:35:43.602Z,12.19
2018-11-02T01:36:24.048Z,12.22
2018-11-02T01:37:05.129Z,12.3
2018-11-02T01:37:45.800Z,12.26
2018-11-02T01:38:26.006Z,12.25
2018-11-02T01:39:06.455Z,12.36
2018-11-02T01:39:46.728Z,12.4
2018-11-02T01:40:27.136Z,12.48
2018-11-02T01:41:07.588Z,12.54
2018-11-02T01:41:48.048Z,12.51
2018-11-02T01:42:29.272Z,12.56
2018-11-02T01:43:09.651Z,12.59
2018-11-02T01:43:50.168Z,12.67
2018-11-02T01:44:30.545Z,12.74
2018-11-02T01:45:10.992Z,12.7
2018-11-02T01:45:51.409Z,12.76
2018-11-02T01:46:31.761Z,12.79
2018-11-02T01:47:12.166Z,12.77
2018-11-02T01:47:52.615Z,12.79
2018-11-02T01:48:32.991Z,12.92
2018-11-02T01:49:13.412Z,12.89
2018-11-02T01:49:53.798Z,12.98
2018-11-02T01:50:34.896Z,12.87
2018-11-02T01:51:15.530Z,12.85
2018-11-02T01:51:55.858Z,12.88
2018-11-02T01:52:36.470Z,12.91
2018-11-02T01:53:16.773Z,13.01
2018-11-02T01:53:57.191Z,12.87
2018-11-02T01:54:37.642Z,12.92
2018-11-02T01:55:17.993Z,12.94
2018-11-02T01:55:58.494Z,12.95
2018-11-02T01:56:38.883Z,13.01
2018-11-02T01:57:19.302Z,13.06
2018-11-02T01:57:59.689Z,12.99
2018-11-02T01:58:40.095Z,12.95
2018-11-02T01:59:20.648Z,12.95
2018-11-02T02:00:01.044Z,12.96
2018-11-02T02:00:41.606Z,12.92
2018-11-02T02:01:22.032Z,12.95
2018-11-02T02:02:02.553Z,12.99
2018-11-02T02:02:43.376Z,12.94
2018-11-02T02:03:23.600Z,12.95
2018-11-02T02:04:04.148Z,12.95
2018-11-02T02:04:44.484Z,12.95
2018-11-02T02:05:24.882Z,12.99
2018-11-02T02:06:05.370Z,12.96
2018-11-02T02:06:46.137Z,12.98
2018-11-02T02:07:26.100Z,12.95
2018-11-02T02:08:06.558Z,12.95
2018-11-02T02:08:46.952Z,12.94
2018-11-02T02:09:27.558Z,12.94
2018-11-02T02:10:07.995Z,12.95
2018-11-02T02:10:48.635Z,13.04
2018-11-02T02:11:29.056Z,12.98
2018-11-02T02:12:09.448Z,12.96
2018-11-02T02:12:49.902Z,12.98
2018-11-02T02:13:30.325Z,12.94
2018-11-02T02:14:10.810Z,12.94
2018-11-02T02:14:51.186Z,12.99
2018-11-02T02:15:31.892Z,12.84
2018-11-02T02:16:12.233Z,12.87
2018-11-02T02:16:52.724Z,12.92
2018-11-02T02:17:33.054Z,12.95
2018-11-02T02:18:13.494Z,12.98
2018-11-02T02:18:53.904Z,13.03
2018-11-02T02:19:34.342Z,12.94
2018-11-02T02:20:15.125Z,12.94
2018-11-02T02:20:55.193Z,12.98
2018-11-02T02:21:35.564Z,12.95
2018-11-02T02:22:15.971Z,12.96
2018-11-02T02:22:56.429Z,12.94
2018-11-02T02:23:36.793Z,12.92
2018-11-02T02:24:17.182Z,12.85
2018-11-02T02:24:57.570Z,12.79
2018-11-02T02:25:38.072Z,12.79
2018-11-02T02:26:18.447Z,12.85
2018-11-02T02:26:58.928Z,12.89
2018-11-02T02:27:39.416Z,12.84
2018-11-02T02:28:20.017Z,12.81
2018-11-02T02:29:00.328Z,12.79
2018-11-02T02:29:40.797Z,12.77
2018-11-02T02:30:21.113Z,12.8
2018-11-02T02:31:01.534Z,12.77
2018-11-02T02:31:41.933Z,12.79
2018-11-02T02:32:22.413Z,12.84
2018-11-02T02:33:02.942Z,12.77
2018-11-02T02:33:43.314Z,12.77
2018-11-02T02:34:23.731Z,12.7
2018-11-02T02:35:04.130Z,12.69
2018-11-02T02:35:44.689Z,12.71
2018-11-02T02:36:25.057Z,12.71
2018-11-02T02:37:05.412Z,12.7
2018-11-02T02:37:45.970Z,12.73
2018-11-02T02:38:26.569Z,12.76
2018-11-02T02:39:06.983Z,12.77
2018-11-02T02:39:47.421Z,12.76
2018-11-02T02:40:27.778Z,12.8
2018-11-02T02:41:08.228Z,12.77
2018-11-02T02:41:48.681Z,12.81
2018-11-02T02:42:29.189Z,12.79
2018-11-02T02:43:09.679Z,12.79
2018-11-02T02:43:50.112Z,12.81
2018-11-02T02:44:30.424Z,12.89
2018-11-02T02:45:10.851Z,12.92
2018-11-02T02:45:51.333Z,12.91
2018-11-02T02:46:31.721Z,12.84
2018-11-02T02:47:12.359Z,12.91
2018-11-02T02:47:52.871Z,12.8
2018-11-02T02:48:33.270Z,12.88
2018-11-02T02:49:13.980Z,12.81
2018-11-02T02:49:54.382Z,12.77
2018-11-02T02:50:34.831Z,12.79
2018-11-02T02:51:15.218Z,12.8
2018-11-02T02:51:55.550Z,12.8
2018-11-02T02:52:35.989Z,12.8
2018-11-02T02:53:16.612Z,12.89
2018-11-02T02:53:56.839Z,12.8
2018-11-02T02:54:37.277Z,12.79
2018-11-02T02:55:17.717Z,12.84
2018-11-02T02:55:58.155Z,12.73
2018-11-02T02:56:38.637Z,12.77
2018-11-02T02:57:19.221Z,12.71
2018-11-02T02:57:59.627Z,12.8
2018-11-02T02:58:40.791Z,12.84
2018-11-02T02:59:21.399Z,12.73
2018-11-02T03:00:01.643Z,12.61
2018-11-02T03:00:42.203Z,12.59
2018-11-02T03:01:22.607Z,12.58
2018-11-02T03:02:02.937Z,12.61
2018-11-02T03:02:43.372Z,12.59
2018-11-02T03:03:23.943Z,12.55
2018-11-02T03:04:04.348Z,12.59
2018-11-02T03:04:44.785Z,12.58
2018-11-02T03:05:25.187Z,12.7
2018-11-02T03:06:05.618Z,12.7
2018-11-02T03:06:46.260Z,12.67
2018-11-02T03:07:26.738Z,12.71
2018-11-02T03:08:07.347Z,12.62
2018-11-02T03:08:47.781Z,12.73
2018-11-02T03:09:28.228Z,12.77
2018-11-02T03:10:08.675Z,12.79
2018-11-02T03:10:49.195Z,12.79
2018-11-02T03:11:29.510Z,12.77
2018-11-02T03:12:09.862Z,12.76
2018-11-02T03:12:50.479Z,12.76
2018-11-02T03:13:30.854Z,12.77
2018-11-02T03:14:11.659Z,12.84
2018-11-02T03:14:52.007Z,12.77
2018-11-02T03:15:32.658Z,12.8
2018-11-02T03:16:13.063Z,12.73
2018-11-02T03:16:53.478Z,12.77
2018-11-02T03:17:33.903Z,12.71
2018-11-02T03:18:14.704Z,12.77
2018-11-02T03:18:55.201Z,12.61
2018-11-02T03:19:35.554Z,12.7
2018-11-02T03:20:16.567Z,12.74
2018-11-02T03:20:56.954Z,12.7
2018-11-02T03:21:37.699Z,12.62
2018-11-02T03:22:18.106Z,12.62
2018-11-02T03:22:58.503Z,12.66
2018-11-02T03:23:39.020Z,12.66
2018-11-02T03:24:19.451Z,12.58
2018-11-02T03:25:00.009Z,12.58
2018-11-02T03:25:40.448Z,12.61
2018-11-02T03:26:20.917Z,12.59
2018-11-02T03:27:01.403Z,12.56
2018-11-02T03:27:41.815Z,12.48
2018-11-02T03:28:22.435Z,12.46
2018-11-02T03:29:02.720Z,12.44
2018-11-02T03:29:43.092Z,12.41
2018-11-02T03:30:23.676Z,12.38
2018-11-02T03:31:04.189Z,12.33
2018-11-02T03:31:44.529Z,12.34
2018-11-02T03:32:24.960Z,12.3
2018-11-02T03:33:05.385Z,12.33
2018-11-02T03:33:45.852Z,12.37
2018-11-02T03:34:26.174Z,12.34
2018-11-02T03:35:06.606Z,12.34
2018-11-02T03:35:47.035Z,12.37
2018-11-02T03:36:27.391Z,12.41
2018-11-02T03:37:07.897Z,12.37
2018-11-02T03:37:48.293Z,12.37
2018-11-02T03:38:29.076Z,12.23
2018-11-02T03:39:09.132Z,12.31
2018-11-02T03:39:49.665Z,12.25
2018-11-02T03:40:30.054Z,12.23
2018-11-02T03:41:10.559Z,12.16
2018-11-02T03:41:50.918Z,12.21
2018-11-02T03:42:31.306Z,12.21
2018-11-02T03:43:11.767Z,12.23
2018-11-02T03:43:52.143Z,12.08
2018-11-02T03:44:32.610Z,12.16
2018-11-02T03:45:13.314Z,12.12
2018-11-02T03:45:53.749Z,12.15
2018-11-02T03:46:34.235Z,12.16
2018-11-02T03:47:14.772Z,12.16
2018-11-02T03:47:55.235Z,12.13
2018-11-02T03:48:35.782Z,12.12
2018-11-02T03:49:16.043Z,12.11
2018-11-02T03:49:56.529Z,12.13
2018-11-02T03:50:37.556Z,12.12
2018-11-02T03:51:17.518Z,12.12
2018-11-02T03:51:57.992Z,12.11
2018-11-02T03:52:38.622Z,12.08
2018-11-02T03:53:18.999Z,12.04
2018-11-02T03:53:59.623Z,12.03
2018-11-02T03:54:40.092Z,12
2018-11-02T03:55:20.682Z,11.94
2018-11-02T03:56:00.869Z,11.96
2018-11-02T03:56:41.380Z,11.87
2018-11-02T03:57:22.023Z,12.01
2018-11-02T03:58:02.852Z,11.93
2018-11-02T03:58:43.226Z,11.82
2018-11-02T03:59:24.723Z,11.78
2018-11-02T04:00:05.474Z,11.74
2018-11-02T04:00:46.206Z,11.72
2018-11-02T04:01:26.809Z,11.64
2018-11-02T04:02:07.832Z,11.6
2018-11-02T04:02:48.210Z,11.6
2018-11-02T04:03:28.819Z,11.49
2018-11-02T04:04:09.459Z,11.54
2018-11-02T04:04:49.780Z,11.44
2018-11-02T04:05:30.078Z,11.36
2018-11-02T04:06:10.680Z,11.36
2018-11-02T04:06:51.125Z,11.27
2018-11-02T04:07:31.492Z,11.24
2018-11-02T04:08:11.967Z,11.11
2018-11-02T04:08:52.334Z,11.12
2018-11-02T04:09:33.009Z,11.12
2018-11-02T04:10:13.438Z,11.13
2018-11-02T04:10:53.716Z,11.11
2018-11-02T04:11:34.154Z,11.16
2018-11-02T04:12:15.097Z,11.19
2018-11-02T04:12:55.813Z,11.19
2018-11-02T04:13:36.569Z,11.23
2018-11-02T04:14:16.994Z,11.21
2018-11-02T04:14:57.511Z,11.16
2018-11-02T04:15:38.030Z,11.16
2018-11-02T04:16:18.945Z,11.23
2018-11-02T04:16:59.604Z,11.13
2018-11-02T04:17:39.696Z,11.16
2018-11-02T04:18:20.091Z,11.23
2018-11-02T04:19:00.625Z,11.23
2018-11-02T04:19:41.079Z,11.27
2018-11-02T04:20:21.535Z,11.23
2018-11-02T04:21:02.140Z,11.19
2018-11-02T04:21:42.281Z,11.19
2018-11-02T04:22:22.729Z,11.12
2018-11-02T04:23:03.617Z,11.17
2018-11-02T04:23:46.985Z,11.09
2018-11-02T04:24:28.027Z,11.17
2018-11-02T04:25:08.532Z,11.13
2018-11-02T04:25:49.005Z,11.06
2018-11-02T04:26:29.396Z,11.09
2018-11-02T04:27:09.770Z,11.09
2018-11-02T05:06:36.681Z,9.45
2018-11-02T05:07:20.569Z,9.34
2018-11-02T05:08:07.410Z,9.34
2018-11-02T05:08:47.595Z,9.32
2018-11-02T05:09:28.510Z,9.34
2018-11-02T05:10:08.917Z,9.32
2018-11-02T05:10:49.500Z,9.34
2018-11-02T05:11:30.554Z,9.34
2018-11-02T05:12:10.931Z,9.34
2018-11-02T05:12:51.469Z,9.32
2018-11-02T05:13:31.863Z,9.32
2018-11-02T05:14:12.362Z,9.3
2018-11-02T05:14:52.833Z,9.31
2018-11-02T05:15:33.147Z,9.41
2018-11-02T05:16:13.851Z,9.41
2018-11-02T05:16:54.248Z,9.41
2018-11-02T05:17:35.066Z,9.4
2018-11-02T05:18:15.544Z,9.4
2018-11-02T05:18:55.861Z,9.58
2018-11-02T05:19:36.302Z,9.53
2018-11-02T05:20:16.951Z,9.6
2018-11-02T05:20:57.460Z,9.56
2018-11-02T05:21:37.672Z,9.63
2018-11-02T05:22:18.104Z,9.62
2018-11-02T05:22:58.519Z,9.6
2018-11-02T05:23:38.908Z,9.56
2018-11-02T05:24:19.531Z,9.65
2018-11-02T05:25:00.075Z,9.7
2018-11-02T05:25:40.593Z,9.65
2018-11-02T05:26:21.143Z,9.75
2018-11-02T05:27:01.501Z,9.74
2018-11-02T05:27:42.127Z,9.73
2018-11-02T05:28:22.515Z,9.77
2018-11-02T05:29:02.896Z,9.77
2018-11-02T05:29:43.418Z,9.8
2018-11-02T05:30:23.763Z,9.92
2018-11-02T05:35:51.676Z,10.09
2018-11-02T05:36:39.575Z,9.99
2018-11-02T05:38:34.606Z,10.09
2018-11-02T05:39:15.781Z,10.07
2018-11-02T05:39:55.941Z,10.16
2018-11-02T05:40:36.617Z,10.11
2018-11-02T05:41:17.026Z,10.16
2018-11-02T05:41:57.406Z,10.16
2018-11-02T05:42:37.884Z,10.18
2018-11-02T05:43:18.159Z,10.22
2018-11-02T05:43:58.536Z,10.29
2018-11-02T05:44:39.023Z,10.26
2018-11-02T05:45:19.509Z,10.34
2018-11-02T05:45:59.888Z,10.28
2018-11-02T05:46:40.400Z,10.26
2018-11-02T05:47:20.872Z,10.25
2018-11-02T05:48:01.251Z,10.2
2018-11-02T05:48:41.544Z,10.28
2018-11-02T05:49:22.130Z,10.28
2018-11-02T05:50:02.636Z,10.28
2018-11-02T05:50:42.981Z,10.25
2018-11-02T05:51:23.738Z,10.22
2018-11-02T05:52:05.014Z,10.26
2018-11-02T05:52:45.249Z,10.28
2018-11-02T05:53:25.516Z,10.16
2018-11-02T05:54:06.602Z,10.14
2018-11-02T05:54:46.435Z,10.06
2018-11-02T05:55:26.751Z,10.06
2018-11-02T05:56:07.137Z,9.88
2018-11-02T05:56:47.640Z,9.85
2018-11-02T05:57:28.243Z,9.85
2018-11-02T05:58:08.682Z,9.78
2018-11-02T05:58:49.104Z,9.81
2018-11-02T05:59:29.521Z,9.8
2018-11-02T06:00:10.016Z,9.78
2018-11-02T06:00:50.379Z,9.75
2018-11-02T06:01:30.888Z,9.86
2018-11-02T06:02:11.282Z,9.83
2018-11-02T06:02:51.583Z,9.95
2018-11-02T06:03:32.021Z,9.96
2018-11-02T06:04:12.424Z,9.95
2018-11-02T06:04:52.841Z,10.1
2018-11-02T06:05:33.244Z,10.02
2018-11-02T06:06:13.636Z,10.01
2018-11-02T06:06:54.015Z,9.99
2018-11-02T06:07:34.734Z,10.04
2018-11-02T06:08:14.937Z,10.06
2018-11-02T06:08:55.316Z,10.04
2018-11-02T06:09:35.962Z,10.16
2018-11-02T06:10:16.423Z,10.14
2018-11-02T06:10:56.760Z,10.13
2018-11-02T06:11:37.152Z,10.11
2018-11-02T06:12:17.807Z,10.09
2018-11-02T06:12:58.302Z,10.11
2018-11-02T06:13:38.637Z,10.18
2018-11-02T06:14:19.094Z,10.25
2018-11-02T06:14:59.498Z,10.18
2018-11-02T06:15:39.884Z,10.24
2018-11-02T06:16:20.259Z,10.17
2018-11-02T06:17:00.874Z,10.18
2018-11-02T06:17:41.145Z,10.24
2018-11-02T06:18:21.505Z,10.24
2018-11-02T06:19:02.296Z,10.24
2018-11-02T06:19:42.509Z,10.24
2018-11-02T06:20:22.965Z,10.28
2018-11-02T06:21:03.420Z,10.31
2018-11-02T06:21:43.919Z,10.32
2018-11-02T06:22:24.855Z,10.35
2018-11-02T06:23:05.182Z,10.35
2018-11-02T06:23:45.492Z,10.34
2018-11-02T06:24:25.994Z,10.31
2018-11-02T06:25:06.381Z,10.35
2018-11-02T06:25:46.753Z,10.29
2018-11-02T06:26:27.146Z,10.29
2018-11-02T06:27:07.624Z,10.43
2018-11-02T06:27:48.020Z,10.47
2018-11-02T06:28:28.418Z,10.29
2018-11-02T06:29:08.827Z,10.43
2018-11-02T06:29:49.479Z,10.51
2018-11-02T06:30:30.064Z,10.42
2018-11-02T06:31:10.355Z,10.39
2018-11-02T06:31:50.881Z,10.44
2018-11-02T06:32:31.249Z,10.42
2018-11-02T06:33:11.609Z,10.38
2018-11-02T06:33:52.127Z,10.43
2018-11-02T06:34:32.488Z,10.32
2018-11-02T06:35:12.861Z,10.46
2018-11-02T06:35:53.260Z,10.42
2018-11-02T06:36:33.646Z,10.44
2018-11-02T06:37:14.160Z,10.55
2018-11-02T06:37:54.545Z,10.51
2018-11-02T06:38:35.070Z,10.57
2018-11-02T06:39:15.391Z,10.57
2018-11-02T06:39:55.818Z,10.66
2018-11-02T06:40:36.185Z,10.68
2018-11-02T06:41:16.576Z,10.75
2018-11-02T06:41:56.931Z,10.86
2018-11-02T06:42:37.492Z,10.9
2018-11-02T06:43:17.818Z,11.03
2018-11-02T06:43:58.267Z,10.94
2018-11-02T06:44:38.682Z,11.06
2018-11-02T06:45:19.101Z,11.12
2018-11-02T06:45:59.617Z,11.16
2018-11-02T06:46:40.394Z,11.08
2018-11-02T06:47:20.809Z,11.12
2018-11-02T06:48:01.338Z,11.09
2018-11-02T06:48:41.620Z,11.05
2018-11-02T06:49:22.042Z,11.09
2018-11-02T06:50:02.497Z,11.08
2018-11-02T06:50:43.023Z,11.12
2018-11-02T06:51:23.342Z,11.09
2018-11-02T06:52:03.813Z,11.09
2018-11-02T06:52:44.202Z,11.06
2018-11-02T06:53:24.594Z,11.03
2018-11-02T06:54:04.984Z,11.02
2018-11-02T06:54:45.434Z,11.11
2018-11-02T06:55:25.833Z,11.11
2018-11-02T06:56:06.188Z,11.05
2018-11-02T06:56:46.604Z,11.08
2018-11-02T06:57:26.990Z,11.11
2018-11-02T06:58:07.353Z,11.13
2018-11-02T06:58:47.759Z,11.21
2018-11-02T06:59:28.362Z,11.23
2018-11-02T07:00:08.772Z,11.27
2018-11-02T07:00:48.978Z,11.28
2018-11-02T07:02:26.716Z,11.42
2018-11-02T07:03:08.484Z,11.48
2018-11-02T07:03:49.051Z,11.54
2018-11-02T07:04:29.445Z,11.56
2018-11-02T07:05:09.972Z,11.56
2018-11-02T07:05:50.228Z,11.49
2018-11-02T07:06:30.645Z,11.62
2018-11-02T07:07:11.103Z,11.62
2018-11-02T07:07:51.599Z,11.63
2018-11-02T07:08:31.987Z,11.63
2018-11-02T07:09:12.218Z,11.64
2018-11-02T07:09:52.734Z,11.66
2018-11-02T07:10:33.072Z,11.75
2018-11-02T07:11:13.546Z,11.77
2018-11-02T07:11:53.896Z,11.74
2018-11-02T07:12:34.321Z,11.72
2018-11-02T07:13:14.737Z,11.69
2018-11-02T07:13:55.158Z,11.78
2018-11-02T07:14:35.930Z,11.72
2018-11-02T07:15:16.072Z,11.78
2018-11-02T07:15:56.480Z,11.79
2018-11-02T07:16:36.859Z,11.78
2018-11-02T07:17:17.268Z,11.78
2018-11-02T07:17:57.641Z,11.84
2018-11-02T07:18:38.098Z,11.75
2018-11-02T07:19:18.449Z,11.75
2018-11-02T07:19:58.838Z,11.72
2018-11-02T07:20:39.657Z,11.79
2018-11-02T07:21:20.082Z,11.81
2018-11-02T07:22:00.479Z,11.82
2018-11-02T07:22:40.856Z,11.79
2018-11-02T07:23:21.290Z,11.87
2018-11-02T07:24:01.701Z,12.01
2018-11-02T07:24:42.339Z,11.96
2018-11-02T07:25:22.843Z,12.04
2018-11-02T07:26:03.139Z,12.04
2018-11-02T07:26:43.579Z,12.08
2018-11-02T07:27:23.982Z,12.04
2018-11-02T07:28:04.476Z,12.13
2018-11-02T07:28:44.875Z,12.16
2018-11-02T07:29:25.447Z,12.34
2018-11-02T07:30:06.152Z,12.38
2018-11-02T07:30:46.522Z,12.46
2018-11-02T07:31:27.076Z,12.46
2018-11-02T07:32:07.755Z,12.58
2018-11-02T07:32:48.016Z,12.58
2018-11-02T07:33:28.739Z,12.46
2018-11-02T07:34:09.734Z,12.49
2018-11-02T07:34:49.957Z,12.44
2018-11-02T07:35:30.360Z,12.44
2018-11-02T07:36:10.884Z,12.55
2018-11-02T07:36:51.305Z,12.59
2018-11-02T07:37:31.794Z,12.54
2018-11-02T07:38:12.258Z,12.71
2018-11-02T07:38:52.709Z,12.59
2018-11-02T07:39:33.182Z,12.66
2018-11-02T07:40:13.973Z,12.7
2018-11-02T07:40:54.919Z,12.74
2018-11-02T07:41:35.323Z,12.71
2018-11-02T07:42:15.947Z,12.84
2018-11-02T07:42:56.334Z,12.77
2018-11-02T07:43:36.945Z,12.77
2018-11-02T07:44:17.168Z,12.77
2018-11-02T07:44:57.602Z,12.79
2018-11-02T07:45:37.971Z,12.88
2018-11-02T07:46:18.403Z,12.96
2018-11-02T07:46:58.848Z,13.06
2018-11-02T07:47:39.674Z,13.1
2018-11-02T07:48:20.435Z,13.14
2018-11-02T07:49:00.791Z,13.06
2018-11-02T07:49:42.394Z,13.14
2018-11-02T07:50:22.731Z,13.09
2018-11-02T07:51:03.234Z,13.14
2018-11-02T07:51:43.594Z,13.28
2018-11-02T07:52:24.066Z,13.22
2018-11-02T07:53:04.387Z,13.19
2018-11-02T07:53:45.009Z,13.22
2018-11-02T07:54:25.697Z,13.17
2018-11-02T07:55:06.244Z,13.22
2018-11-02T07:55:46.794Z,13.27
2018-11-02T07:56:27.227Z,13.22
2018-11-02T07:57:08.057Z,13.36
2018-11-02T07:57:48.771Z,13.38
2018-11-02T07:58:28.971Z,13.31
2018-11-02T07:59:09.535Z,13.47
2018-11-02T07:59:49.965Z,13.47
2018-11-02T08:00:31.170Z,13.55
2018-11-02T08:06:01.831Z,13.63
2018-11-02T08:06:51.488Z,13.72
2018-11-02T08:07:32.368Z,13.68
2018-11-02T08:08:12.852Z,13.84
2018-11-02T08:08:53.524Z,13.86
2018-11-02T08:09:38.871Z,13.88
2018-11-02T08:10:19.302Z,13.9
2018-11-02T08:11:00.692Z,13.8
2018-11-02T08:11:41.353Z,13.79
2018-11-02T08:12:24.703Z,13.88
2018-11-02T08:13:05.195Z,13.91
2018-11-02T08:13:45.590Z,14.01
2018-11-02T08:14:27.221Z,14.12
2018-11-02T08:15:08.048Z,14.23
2018-11-02T08:15:49.516Z,14.41
2018-11-02T08:16:30.270Z,14.63
2018-11-02T08:17:11.501Z,14.79
2018-11-02T08:17:53.007Z,15.03
2018-11-02T08:18:42.220Z,15.37
2018-11-02T08:19:23.521Z,15.62
2018-11-02T08:20:04.273Z,15.85
2018-11-02T08:20:44.518Z,16.04
2018-11-02T08:21:25.252Z,16.32
2018-11-02T08:22:07.520Z,16.52
2018-11-02T08:23:59.179Z,16.91
2018-11-02T08:24:39.698Z,17.1
2018-11-02T08:25:19.966Z,17.24
2018-11-02T08:26:00.429Z,17.47
2018-11-02T08:26:40.893Z,17.73
2018-11-02T08:27:22.046Z,17.87
2018-11-02T08:28:02.500Z,18.01
2018-11-02T08:28:44.533Z,18.25
2018-11-02T08:29:24.717Z,18.36
2018-11-02T08:30:05.156Z,18.5
2018-11-02T08:30:45.604Z,18.56
2018-11-02T08:31:26.044Z,18.64
2018-11-02T08:32:06.674Z,18.74
2018-11-02T08:32:47.007Z,18.86
2018-11-02T08:33:28.754Z,18.82
2018-11-02T08:34:09.201Z,18.93
2018-11-02T08:34:49.662Z,18.94
2018-11-02T08:35:30.171Z,18.96
2018-11-02T08:36:11.657Z,19.01
2018-11-02T08:36:52.643Z,19.05
2018-11-02T08:37:32.600Z,19.01
2018-11-02T08:38:12.990Z,18.94
2018-11-02T08:38:53.419Z,18.87
2018-11-02T08:39:33.824Z,18.83
2018-11-02T08:40:14.510Z,18.78
2018-11-02T08:42:02.807Z,18.65
2018-11-02T08:42:43.463Z,18.54
2018-11-02T08:43:24.041Z,18.51
2018-11-02T08:44:04.485Z,18.65
2018-11-02T08:44:44.884Z,18.62
2018-11-02T08:45:25.310Z,18.69
2018-11-02T08:46:05.784Z,18.83
2018-11-02T08:46:46.157Z,18.83
2018-11-02T08:52:15.564Z,19.62
2018-11-02T08:52:55.943Z,19.6
2018-11-02T08:53:36.339Z,19.61
2018-11-02T08:54:16.757Z,19.68
2018-11-02T08:54:57.260Z,19.55
2018-11-02T08:55:38.443Z,19.53
2018-11-02T08:56:20.222Z,19.68
2018-11-02T08:57:01.370Z,19.76
2018-11-02T08:57:41.899Z,19.79
2018-11-02T08:58:22.430Z,19.72
2018-11-02T08:59:02.811Z,19.82
2018-11-02T08:59:43.214Z,19.7
2018-11-02T09:00:23.632Z,19.72
2018-11-02T09:01:04.052Z,19.61
2018-11-02T09:01:45.889Z,19.64
2018-11-02T09:02:28.326Z,19.43
2018-11-02T09:03:08.873Z,19.28
2018-11-02T09:03:49.780Z,19.1
2018-11-02T09:04:29.913Z,18.91
2018-11-02T09:05:10.465Z,18.71
2018-11-02T09:05:50.910Z,18.68
2018-11-02T09:06:31.405Z,18.51
2018-11-02T09:07:12.431Z,18.36
2018-11-02T09:07:53.025Z,18.25
2018-11-02T09:08:33.486Z,18.2
2018-11-02T09:09:16.924Z,18.16
2018-11-02T09:09:57.427Z,18.05
2018-11-02T09:10:38.832Z,17.94
2018-11-02T09:11:19.251Z,17.91
2018-11-02T09:12:00.619Z,17.83
2018-11-02T09:12:40.915Z,17.79
2018-11-02T09:13:21.422Z,17.63
2018-11-02T09:14:01.970Z,17.53
2018-11-02T09:14:42.420Z,17.55
2018-11-02T09:15:22.839Z,17.43
2018-11-02T09:16:03.299Z,17.3
2018-11-02T09:16:43.846Z,17.18
2018-11-02T09:17:24.161Z,17.18
2018-11-02T09:18:04.582Z,16.98
2018-11-02T09:18:45.226Z,16.95
2018-11-02T09:19:25.733Z,16.88
2018-11-02T09:20:06.257Z,16.81
2018-11-02T09:20:46.635Z,16.85
2018-11-02T09:21:30.501Z,16.8
2018-11-02T09:22:10.146Z,16.85
2018-11-02T09:22:51.646Z,16.77
2018-11-02T09:23:31.341Z,16.77
2018-11-02T09:24:12.028Z,16.67
2018-11-02T09:24:53.447Z,16.67
2018-11-02T09:25:33.845Z,16.66
2018-11-02T09:26:14.369Z,16.67
2018-11-02T09:26:54.843Z,16.59
2018-11-02T09:27:36.513Z,16.59
2018-11-02T09:28:16.876Z,16.57
2018-11-02T09:28:57.264Z,16.54
2018-11-02T09:29:37.727Z,16.57
2018-11-02T09:30:18.145Z,16.54
2018-11-02T09:30:58.926Z,16.48
2018-11-02T09:31:39.348Z,16.55
2018-11-02T09:32:20.047Z,16.52
2018-11-02T09:33:00.352Z,16.5
2018-11-02T09:33:40.785Z,16.44
2018-11-02T09:34:21.235Z,16.45
2018-11-02T09:35:01.677Z,16.47
2018-11-02T09:35:42.092Z,16.5
2018-11-02T09:36:22.538Z,16.29
2018-11-02T09:37:03.041Z,16.45
2018-11-02T09:37:43.338Z,16.36
2018-11-02T09:38:23.786Z,16.4
2018-11-02T09:39:04.521Z,16.37
2018-11-02T09:39:44.930Z,16.37
2018-11-02T09:40:27.154Z,16.26
2018-11-02T09:41:08.062Z,16.23
2018-11-02T09:41:48.353Z,16.26
2018-11-02T09:42:28.882Z,16.23
2018-11-02T09:43:09.956Z,16.18